sensor_id;sensor_type;location;lat;lon;timestamp;P1;durP1;ratioP1;P2;durP2;ratioP2
3261;SDS011;1643;47.746;9.000;2022-12-11T00:01:11;17.07;;;9.70;;
3261;SDS011;1643;47.746;9.000;2022-12-11T00:03:38;18.53;;;10.47;;
3261;SDS011;1643;47.746;9.000;2022-12-11T00:06:05;20.53;;;12.77;;
3261;SDS011;1643;47.746;9.000;2022-12-11T00:08:31;19.40;;;11.57;;
3261;SDS011;1643;47.746;9.000;2022-12-11T00:10:58;18.53;;;11.80;;
3261;SDS011;1643;47.746;9.000;2022-12-11T00:13:24;19.63;;;11.67;;
3261;SDS011;1643;47.746;9.000;2022-12-11T00:15:50;17.97;;;10.37;;
3261;SDS011;1643;47.746;9.000;2022-12-11T00:18:16;15.90;;;10.50;;
3261;SDS011;1643;47.746;9.000;2022-12-11T00:20:42;18.80;;;11.70;;
3261;SDS011;1643;47.746;9.000;2022-12-11T00:23:08;17.60;;;10.90;;
3261;SDS011;1643;47.746;9.000;2022-12-11T00:25:35;19.40;;;11.43;;
3261;SDS011;1643;47.746;9.000;2022-12-11T00:28:05;16.00;;;10.93;;
3261;SDS011;1643;47.746;9.000;2022-12-11T00:30:31;18.53;;;12.53;;
3261;SDS011;1643;47.746;9.000;2022-12-11T00:32:57;18.37;;;12.17;;
3261;SDS011;1643;47.746;9.000;2022-12-11T00:35:23;21.30;;;13.70;;
3261;SDS011;1643;47.746;9.000;2022-12-11T00:37:49;18.23;;;12.03;;
3261;SDS011;1643;47.746;9.000;2022-12-11T00:40:15;19.00;;;12.37;;
3261;SDS011;1643;47.746;9.000;2022-12-11T00:42:41;18.40;;;11.60;;
3261;SDS011;1643;47.746;9.000;2022-12-11T00:45:07;22.43;;;12.60;;
3261;SDS011;1643;47.746;9.000;2022-12-11T00:47:33;22.27;;;12.67;;
3261;SDS011;1643;47.746;9.000;2022-12-11T00:49:59;18.17;;;11.63;;
3261;SDS011;1643;47.746;9.000;2022-12-11T00:52:26;16.17;;;10.23;;
3261;SDS011;1643;47.746;9.000;2022-12-11T00:54:52;18.20;;;10.80;;
3261;SDS011;1643;47.746;9.000;2022-12-11T00:57:18;17.00;;;11.10;;
3261;SDS011;1643;47.746;9.000;2022-12-11T00:59:44;18.27;;;11.00;;
3261;SDS011;1643;47.746;9.000;2022-12-11T01:02:10;18.33;;;11.80;;
3261;SDS011;1643;47.746;9.000;2022-12-11T01:04:36;17.23;;;10.90;;
3261;SDS011;1643;47.746;9.000;2022-12-11T01:07:02;14.77;;;8.77;;
3261;SDS011;1643;47.746;9.000;2022-12-11T01:09:28;16.60;;;9.70;;
3261;SDS011;1643;47.746;9.000;2022-12-11T01:12:12;13.83;;;8.67;;
3261;SDS011;1643;47.746;9.000;2022-12-11T01:14:38;20.00;;;11.83;;
3261;SDS011;1643;47.746;9.000;2022-12-11T01:17:04;14.67;;;9.90;;
3261;SDS011;1643;47.746;9.000;2022-12-11T01:19:30;15.37;;;10.53;;
3261;SDS011;1643;47.746;9.000;2022-12-11T01:21:57;19.87;;;12.57;;
3261;SDS011;1643;47.746;9.000;2022-12-11T01:24:23;25.10;;;12.57;;
3261;SDS011;1643;47.746;9.000;2022-12-11T01:26:49;19.33;;;10.80;;
3261;SDS011;1643;47.746;9.000;2022-12-11T01:29:15;19.27;;;11.57;;
3261;SDS011;1643;47.746;9.000;2022-12-11T01:31:41;13.40;;;9.67;;
3261;SDS011;1643;47.746;9.000;2022-12-11T01:34:07;20.73;;;11.83;;
3261;SDS011;1643;47.746;9.000;2022-12-11T01:36:33;18.27;;;11.83;;
3261;SDS011;1643;47.746;9.000;2022-12-11T01:38:59;15.53;;;10.20;;
3261;SDS011;1643;47.746;9.000;2022-12-11T01:41:25;20.00;;;11.43;;
3261;SDS011;1643;47.746;9.000;2022-12-11T01:43:54;16.10;;;10.63;;
3261;SDS011;1643;47.746;9.000;2022-12-11T01:46:20;17.57;;;11.10;;
3261;SDS011;1643;47.746;9.000;2022-12-11T01:48:46;16.57;;;9.73;;
3261;SDS011;1643;47.746;9.000;2022-12-11T01:51:12;18.37;;;11.70;;
3261;SDS011;1643;47.746;9.000;2022-12-11T01:53:42;15.90;;;10.40;;
3261;SDS011;1643;47.746;9.000;2022-12-11T01:56:09;18.60;;;10.90;;
3261;SDS011;1643;47.746;9.000;2022-12-11T01:58:40;15.83;;;11.50;;
3261;SDS011;1643;47.746;9.000;2022-12-11T02:01:07;18.43;;;12.13;;
3261;SDS011;1643;47.746;9.000;2022-12-11T02:03:35;18.63;;;11.03;;
3261;SDS011;1643;47.746;9.000;2022-12-11T02:06:01;17.43;;;10.37;;
3261;SDS011;1643;47.746;9.000;2022-12-11T02:08:27;18.03;;;10.67;;
3261;SDS011;1643;47.746;9.000;2022-12-11T02:10:57;16.47;;;10.10;;
3261;SDS011;1643;47.746;9.000;2022-12-11T02:16:37;19.40;;;11.90;;
3261;SDS011;1643;47.746;9.000;2022-12-11T02:18:54;21.20;;;11.90;;
3261;SDS011;1643;47.746;9.000;2022-12-11T02:21:24;13.07;;;9.60;;
3261;SDS011;1643;47.746;9.000;2022-12-11T02:29:16;13.57;;;8.90;;
3261;SDS011;1643;47.746;9.000;2022-12-11T02:31:45;19.10;;;11.50;;
3261;SDS011;1643;47.746;9.000;2022-12-11T02:34:15;17.30;;;11.27;;
3261;SDS011;1643;47.746;9.000;2022-12-11T02:36:44;11.63;;;7.37;;
3261;SDS011;1643;47.746;9.000;2022-12-11T02:39:11;14.70;;;9.80;;
3261;SDS011;1643;47.746;9.000;2022-12-11T02:41:39;16.80;;;8.93;;
3261;SDS011;1643;47.746;9.000;2022-12-11T02:44:07;13.40;;;8.43;;
3261;SDS011;1643;47.746;9.000;2022-12-11T02:46:36;13.13;;;8.50;;
3261;SDS011;1643;47.746;9.000;2022-12-11T02:49:02;14.13;;;9.00;;
3261;SDS011;1643;47.746;9.000;2022-12-11T02:51:31;13.80;;;8.90;;
3261;SDS011;1643;47.746;9.000;2022-12-11T02:53:59;13.00;;;8.57;;
3261;SDS011;1643;47.746;9.000;2022-12-11T02:56:29;13.13;;;8.30;;
3261;SDS011;1643;47.746;9.000;2022-12-11T02:58:58;12.80;;;8.40;;
3261;SDS011;1643;47.746;9.000;2022-12-11T03:01:25;13.03;;;8.10;;
3261;SDS011;1643;47.746;9.000;2022-12-11T03:03:52;11.53;;;7.83;;
3261;SDS011;1643;47.746;9.000;2022-12-11T03:06:19;9.00;;;7.20;;
3261;SDS011;1643;47.746;9.000;2022-12-11T03:08:46;12.67;;;8.50;;
3261;SDS011;1643;47.746;9.000;2022-12-11T03:11:15;12.47;;;7.87;;
3261;SDS011;1643;47.746;9.000;2022-12-11T03:13:42;12.23;;;8.47;;
3261;SDS011;1643;47.746;9.000;2022-12-11T03:16:19;14.73;;;8.80;;
3261;SDS011;1643;47.746;9.000;2022-12-11T03:21:39;13.53;;;8.90;;
3261;SDS011;1643;47.746;9.000;2022-12-11T03:24:16;13.97;;;8.57;;
3261;SDS011;1643;47.746;9.000;2022-12-11T03:26:47;13.70;;;8.53;;
3261;SDS011;1643;47.746;9.000;2022-12-11T03:29:17;15.70;;;9.70;;
3261;SDS011;1643;47.746;9.000;2022-12-11T03:31:45;11.93;;;8.60;;
3261;SDS011;1643;47.746;9.000;2022-12-11T03:34:22;12.20;;;8.83;;
3261;SDS011;1643;47.746;9.000;2022-12-11T03:36:49;12.83;;;8.47;;
3261;SDS011;1643;47.746;9.000;2022-12-11T03:39:18;14.10;;;9.33;;
3261;SDS011;1643;47.746;9.000;2022-12-11T03:41:46;12.27;;;8.27;;
3261;SDS011;1643;47.746;9.000;2022-12-11T03:44:13;15.20;;;9.77;;
3261;SDS011;1643;47.746;9.000;2022-12-11T03:46:40;10.67;;;8.33;;
3261;SDS011;1643;47.746;9.000;2022-12-11T03:49:10;11.70;;;8.93;;
3261;SDS011;1643;47.746;9.000;2022-12-11T03:51:37;15.40;;;8.80;;
3261;SDS011;1643;47.746;9.000;2022-12-11T03:54:04;13.00;;;9.07;;
3261;SDS011;1643;47.746;9.000;2022-12-11T03:56:30;15.83;;;7.20;;
3261;SDS011;1643;47.746;9.000;2022-12-11T03:58:59;11.13;;;7.67;;
3261;SDS011;1643;47.746;9.000;2022-12-11T04:01:25;13.73;;;8.50;;
3261;SDS011;1643;47.746;9.000;2022-12-11T04:03:51;15.03;;;8.17;;
3261;SDS011;1643;47.746;9.000;2022-12-11T04:06:16;12.83;;;7.90;;
3261;SDS011;1643;47.746;9.000;2022-12-11T04:08:42;12.83;;;8.00;;
3261;SDS011;1643;47.746;9.000;2022-12-11T04:11:09;13.30;;;7.93;;
3261;SDS011;1643;47.746;9.000;2022-12-11T04:13:53;14.10;;;8.60;;
3261;SDS011;1643;47.746;9.000;2022-12-11T04:16:38;13.23;;;8.93;;
3261;SDS011;1643;47.746;9.000;2022-12-11T04:19:04;13.20;;;8.97;;
3261;SDS011;1643;47.746;9.000;2022-12-11T04:21:49;12.30;;;8.73;;
3261;SDS011;1643;47.746;9.000;2022-12-11T04:24:33;18.83;;;9.27;;
3261;SDS011;1643;47.746;9.000;2022-12-11T04:26:59;13.93;;;9.13;;
3261;SDS011;1643;47.746;9.000;2022-12-11T04:29:25;12.37;;;8.40;;
3261;SDS011;1643;47.746;9.000;2022-12-11T04:31:51;12.63;;;8.30;;
3261;SDS011;1643;47.746;9.000;2022-12-11T04:34:17;13.70;;;8.20;;
3261;SDS011;1643;47.746;9.000;2022-12-11T04:36:43;11.47;;;8.20;;
3261;SDS011;1643;47.746;9.000;2022-12-11T04:39:09;14.20;;;8.40;;
3261;SDS011;1643;47.746;9.000;2022-12-11T04:41:35;14.53;;;9.87;;
3261;SDS011;1643;47.746;9.000;2022-12-11T04:44:02;14.40;;;10.10;;
3261;SDS011;1643;47.746;9.000;2022-12-11T04:46:29;15.43;;;8.43;;
3261;SDS011;1643;47.746;9.000;2022-12-11T04:48:55;9.83;;;7.63;;
3261;SDS011;1643;47.746;9.000;2022-12-11T04:51:21;14.03;;;7.90;;
3261;SDS011;1643;47.746;9.000;2022-12-11T04:53:47;12.53;;;7.87;;
3261;SDS011;1643;47.746;9.000;2022-12-11T04:56:14;14.90;;;9.57;;
3261;SDS011;1643;47.746;9.000;2022-12-11T04:58:41;17.30;;;9.20;;
3261;SDS011;1643;47.746;9.000;2022-12-11T05:01:14;11.50;;;8.07;;
3261;SDS011;1643;47.746;9.000;2022-12-11T05:03:41;12.70;;;8.80;;
3261;SDS011;1643;47.746;9.000;2022-12-11T05:06:08;15.10;;;8.90;;
3261;SDS011;1643;47.746;9.000;2022-12-11T05:08:35;12.33;;;8.33;;
3261;SDS011;1643;47.746;9.000;2022-12-11T05:11:03;12.47;;;8.10;;
3261;SDS011;1643;47.746;9.000;2022-12-11T05:13:30;9.60;;;7.40;;
3261;SDS011;1643;47.746;9.000;2022-12-11T05:15:57;13.37;;;8.60;;
3261;SDS011;1643;47.746;9.000;2022-12-11T05:18:23;10.27;;;7.00;;
3261;SDS011;1643;47.746;9.000;2022-12-11T05:20:56;10.47;;;6.90;;
3261;SDS011;1643;47.746;9.000;2022-12-11T05:23:23;12.07;;;8.50;;
3261;SDS011;1643;47.746;9.000;2022-12-11T05:25:56;11.33;;;8.00;;
3261;SDS011;1643;47.746;9.000;2022-12-11T05:28:22;10.60;;;7.30;;
3261;SDS011;1643;47.746;9.000;2022-12-11T05:30:53;9.90;;;6.87;;
3261;SDS011;1643;47.746;9.000;2022-12-11T05:33:19;11.30;;;6.27;;
3261;SDS011;1643;47.746;9.000;2022-12-11T05:35:46;9.43;;;7.20;;
3261;SDS011;1643;47.746;9.000;2022-12-11T05:38:12;9.20;;;6.10;;
3261;SDS011;1643;47.746;9.000;2022-12-11T05:40:38;10.13;;;6.97;;
3261;SDS011;1643;47.746;9.000;2022-12-11T05:43:04;10.87;;;7.60;;
3261;SDS011;1643;47.746;9.000;2022-12-11T05:45:30;10.67;;;7.33;;
3261;SDS011;1643;47.746;9.000;2022-12-11T05:47:56;10.97;;;7.50;;
3261;SDS011;1643;47.746;9.000;2022-12-11T05:50:22;12.00;;;7.50;;
3261;SDS011;1643;47.746;9.000;2022-12-11T05:52:48;10.50;;;7.90;;
3261;SDS011;1643;47.746;9.000;2022-12-11T05:55:14;10.57;;;8.07;;
3261;SDS011;1643;47.746;9.000;2022-12-11T05:57:40;9.43;;;6.53;;
3261;SDS011;1643;47.746;9.000;2022-12-11T06:00:06;10.90;;;7.90;;
3261;SDS011;1643;47.746;9.000;2022-12-11T06:02:35;11.10;;;6.83;;
3261;SDS011;1643;47.746;9.000;2022-12-11T06:05:01;11.87;;;7.90;;
3261;SDS011;1643;47.746;9.000;2022-12-11T06:07:27;8.17;;;6.20;;
3261;SDS011;1643;47.746;9.000;2022-12-11T06:09:53;10.47;;;6.70;;
3261;SDS011;1643;47.746;9.000;2022-12-11T06:12:19;13.00;;;7.77;;
3261;SDS011;1643;47.746;9.000;2022-12-11T06:14:45;12.43;;;7.73;;
3261;SDS011;1643;47.746;9.000;2022-12-11T06:17:11;13.03;;;8.20;;
3261;SDS011;1643;47.746;9.000;2022-12-11T06:19:37;10.73;;;7.30;;
3261;SDS011;1643;47.746;9.000;2022-12-11T06:22:03;12.97;;;9.23;;
3261;SDS011;1643;47.746;9.000;2022-12-11T06:24:30;14.37;;;7.13;;
3261;SDS011;1643;47.746;9.000;2022-12-11T06:26:56;11.30;;;7.87;;
3261;SDS011;1643;47.746;9.000;2022-12-11T06:29:22;16.10;;;10.20;;
3261;SDS011;1643;47.746;9.000;2022-12-11T06:31:48;12.30;;;8.70;;
3261;SDS011;1643;47.746;9.000;2022-12-11T06:34:14;16.50;;;11.27;;
3261;SDS011;1643;47.746;9.000;2022-12-11T06:36:40;26.17;;;16.60;;
3261;SDS011;1643;47.746;9.000;2022-12-11T06:39:06;19.97;;;12.47;;
3261;SDS011;1643;47.746;9.000;2022-12-11T06:41:32;16.70;;;10.60;;
3261;SDS011;1643;47.746;9.000;2022-12-11T06:43:58;15.37;;;11.00;;
3261;SDS011;1643;47.746;9.000;2022-12-11T06:46:24;16.20;;;9.57;;
3261;SDS011;1643;47.746;9.000;2022-12-11T06:48:50;13.83;;;8.37;;
3261;SDS011;1643;47.746;9.000;2022-12-11T06:51:17;12.60;;;7.83;;
3261;SDS011;1643;47.746;9.000;2022-12-11T06:53:44;14.20;;;8.30;;
3261;SDS011;1643;47.746;9.000;2022-12-11T06:56:12;10.47;;;7.10;;
3261;SDS011;1643;47.746;9.000;2022-12-11T06:58:38;15.23;;;10.10;;
3261;SDS011;1643;47.746;9.000;2022-12-11T07:01:11;11.40;;;8.57;;
3261;SDS011;1643;47.746;9.000;2022-12-11T07:03:38;14.27;;;9.13;;
3261;SDS011;1643;47.746;9.000;2022-12-11T07:06:04;14.77;;;9.20;;
3261;SDS011;1643;47.746;9.000;2022-12-11T07:08:30;14.77;;;8.43;;
3261;SDS011;1643;47.746;9.000;2022-12-11T07:11:05;14.93;;;9.53;;
3261;SDS011;1643;47.746;9.000;2022-12-11T07:13:31;12.90;;;8.13;;
3261;SDS011;1643;47.746;9.000;2022-12-11T07:15:58;14.53;;;10.00;;
3261;SDS011;1643;47.746;9.000;2022-12-11T07:18:28;17.97;;;9.80;;
3261;SDS011;1643;47.746;9.000;2022-12-11T07:20:56;14.80;;;9.57;;
3261;SDS011;1643;47.746;9.000;2022-12-11T07:23:23;11.83;;;7.43;;
3261;SDS011;1643;47.746;9.000;2022-12-11T07:25:49;14.63;;;9.63;;
3261;SDS011;1643;47.746;9.000;2022-12-11T07:28:15;14.40;;;9.03;;
3261;SDS011;1643;47.746;9.000;2022-12-11T07:30:41;14.23;;;8.40;;
3261;SDS011;1643;47.746;9.000;2022-12-11T07:33:07;13.03;;;8.40;;
3261;SDS011;1643;47.746;9.000;2022-12-11T07:35:33;14.47;;;9.90;;
3261;SDS011;1643;47.746;9.000;2022-12-11T07:37:59;16.83;;;10.93;;
3261;SDS011;1643;47.746;9.000;2022-12-11T07:40:26;15.13;;;10.10;;
3261;SDS011;1643;47.746;9.000;2022-12-11T07:42:52;17.20;;;10.97;;
3261;SDS011;1643;47.746;9.000;2022-12-11T07:45:18;14.93;;;8.30;;
3261;SDS011;1643;47.746;9.000;2022-12-11T07:47:44;16.90;;;11.00;;
3261;SDS011;1643;47.746;9.000;2022-12-11T07:50:10;16.97;;;11.73;;
3261;SDS011;1643;47.746;9.000;2022-12-11T07:52:36;20.97;;;14.53;;
3261;SDS011;1643;47.746;9.000;2022-12-11T07:55:02;24.10;;;13.87;;
3261;SDS011;1643;47.746;9.000;2022-12-11T07:57:28;20.10;;;13.10;;
3261;SDS011;1643;47.746;9.000;2022-12-11T07:59:55;20.87;;;13.33;;
3261;SDS011;1643;47.746;9.000;2022-12-11T08:02:21;16.23;;;10.63;;
3261;SDS011;1643;47.746;9.000;2022-12-11T08:04:47;20.00;;;13.50;;
3261;SDS011;1643;47.746;9.000;2022-12-11T08:07:14;28.37;;;17.80;;
3261;SDS011;1643;47.746;9.000;2022-12-11T08:09:40;21.47;;;12.43;;
3261;SDS011;1643;47.746;9.000;2022-12-11T08:12:06;17.27;;;11.67;;
3261;SDS011;1643;47.746;9.000;2022-12-11T08:14:32;18.53;;;12.00;;
3261;SDS011;1643;47.746;9.000;2022-12-11T08:16:58;20.03;;;11.97;;
3261;SDS011;1643;47.746;9.000;2022-12-11T08:19:26;18.63;;;13.20;;
3261;SDS011;1643;47.746;9.000;2022-12-11T08:21:52;18.20;;;13.70;;
3261;SDS011;1643;47.746;9.000;2022-12-11T08:24:18;20.50;;;13.40;;
3261;SDS011;1643;47.746;9.000;2022-12-11T08:26:45;13.73;;;10.80;;
3261;SDS011;1643;47.746;9.000;2022-12-11T08:29:11;16.23;;;11.00;;
3261;SDS011;1643;47.746;9.000;2022-12-11T08:31:38;15.70;;;10.07;;
3261;SDS011;1643;47.746;9.000;2022-12-11T08:34:04;21.03;;;11.90;;
3261;SDS011;1643;47.746;9.000;2022-12-11T08:36:30;15.70;;;10.47;;
3261;SDS011;1643;47.746;9.000;2022-12-11T08:38:56;21.33;;;11.23;;
3261;SDS011;1643;47.746;9.000;2022-12-11T08:41:26;14.73;;;10.20;;
3261;SDS011;1643;47.746;9.000;2022-12-11T08:43:53;15.20;;;10.37;;
3261;SDS011;1643;47.746;9.000;2022-12-11T08:46:23;15.13;;;9.50;;
3261;SDS011;1643;47.746;9.000;2022-12-11T08:48:49;12.70;;;9.70;;
3261;SDS011;1643;47.746;9.000;2022-12-11T08:51:16;19.83;;;9.47;;
3261;SDS011;1643;47.746;9.000;2022-12-11T08:53:43;14.40;;;9.10;;
3261;SDS011;1643;47.746;9.000;2022-12-11T08:56:10;12.63;;;8.63;;
3261;SDS011;1643;47.746;9.000;2022-12-11T08:58:37;13.33;;;9.77;;
3261;SDS011;1643;47.746;9.000;2022-12-11T09:01:06;14.97;;;9.90;;
3261;SDS011;1643;47.746;9.000;2022-12-11T09:03:33;14.83;;;9.50;;
3261;SDS011;1643;47.746;9.000;2022-12-11T09:05:59;14.30;;;9.33;;
3261;SDS011;1643;47.746;9.000;2022-12-11T09:08:28;11.53;;;8.70;;
3261;SDS011;1643;47.746;9.000;2022-12-11T09:10:54;13.83;;;9.37;;
3261;SDS011;1643;47.746;9.000;2022-12-11T09:13:20;14.57;;;9.60;;
3261;SDS011;1643;47.746;9.000;2022-12-11T09:15:46;14.10;;;8.83;;
3261;SDS011;1643;47.746;9.000;2022-12-11T09:18:11;13.63;;;9.20;;
3261;SDS011;1643;47.746;9.000;2022-12-11T09:20:37;14.00;;;9.10;;
3261;SDS011;1643;47.746;9.000;2022-12-11T09:23:03;14.77;;;9.20;;
3261;SDS011;1643;47.746;9.000;2022-12-11T09:25:29;13.60;;;9.00;;
3261;SDS011;1643;47.746;9.000;2022-12-11T09:27:55;10.90;;;7.63;;
3261;SDS011;1643;47.746;9.000;2022-12-11T09:30:21;12.87;;;8.77;;
3261;SDS011;1643;47.746;9.000;2022-12-11T09:32:47;13.37;;;9.43;;
3261;SDS011;1643;47.746;9.000;2022-12-11T09:35:13;14.73;;;9.30;;
3261;SDS011;1643;47.746;9.000;2022-12-11T09:37:39;13.07;;;9.07;;
3261;SDS011;1643;47.746;9.000;2022-12-11T09:40:05;12.93;;;8.80;;
3261;SDS011;1643;47.746;9.000;2022-12-11T09:42:42;15.60;;;10.27;;
3261;SDS011;1643;47.746;9.000;2022-12-11T09:45:12;11.97;;;8.70;;
3261;SDS011;1643;47.746;9.000;2022-12-11T09:47:43;15.63;;;8.47;;
3261;SDS011;1643;47.746;9.000;2022-12-11T09:55:12;17.10;;;9.60;;
3261;SDS011;1643;47.746;9.000;2022-12-11T10:05:20;13.30;;;9.03;;
3261;SDS011;1643;47.746;9.000;2022-12-11T10:07:50;14.93;;;9.17;;
3261;SDS011;1643;47.746;9.000;2022-12-11T10:17:54;17.47;;;10.77;;
3261;SDS011;1643;47.746;9.000;2022-12-11T10:20:28;18.27;;;10.87;;
3261;SDS011;1643;47.746;9.000;2022-12-11T10:22:57;19.90;;;12.30;;
3261;SDS011;1643;47.746;9.000;2022-12-11T10:25:31;13.57;;;8.60;;
3261;SDS011;1643;47.746;9.000;2022-12-11T10:27:57;15.07;;;9.60;;
3261;SDS011;1643;47.746;9.000;2022-12-11T10:30:25;14.00;;;9.80;;
3261;SDS011;1643;47.746;9.000;2022-12-11T10:33:02;14.50;;;9.73;;
3261;SDS011;1643;47.746;9.000;2022-12-11T10:35:33;17.23;;;9.47;;
3261;SDS011;1643;47.746;9.000;2022-12-11T10:38:45;16.43;;;9.83;;
3261;SDS011;1643;47.746;9.000;2022-12-11T10:40:53;14.20;;;9.10;;
3261;SDS011;1643;47.746;9.000;2022-12-11T10:43:19;10.97;;;7.83;;
3261;SDS011;1643;47.746;9.000;2022-12-11T10:45:52;13.97;;;9.30;;
3261;SDS011;1643;47.746;9.000;2022-12-11T10:48:18;14.07;;;8.53;;
3261;SDS011;1643;47.746;9.000;2022-12-11T10:50:53;14.80;;;9.97;;
3261;SDS011;1643;47.746;9.000;2022-12-11T10:53:20;12.20;;;8.90;;
3261;SDS011;1643;47.746;9.000;2022-12-11T10:55:46;15.10;;;8.67;;
3261;SDS011;1643;47.746;9.000;2022-12-11T10:58:17;13.43;;;8.80;;
3261;SDS011;1643;47.746;9.000;2022-12-11T11:00:44;14.70;;;9.30;;
3261;SDS011;1643;47.746;9.000;2022-12-11T11:03:21;13.87;;;9.40;;
3261;SDS011;1643;47.746;9.000;2022-12-11T11:05:47;13.00;;;8.30;;
3261;SDS011;1643;47.746;9.000;2022-12-11T11:08:19;14.03;;;8.23;;
3261;SDS011;1643;47.746;9.000;2022-12-11T11:13:19;12.73;;;8.50;;
3261;SDS011;1643;47.746;9.000;2022-12-11T11:15:46;13.27;;;8.70;;
3261;SDS011;1643;47.746;9.000;2022-12-11T11:18:15;14.53;;;9.17;;
3261;SDS011;1643;47.746;9.000;2022-12-11T11:20:46;17.13;;;8.57;;
3261;SDS011;1643;47.746;9.000;2022-12-11T11:23:13;13.90;;;9.07;;
3261;SDS011;1643;47.746;9.000;2022-12-11T11:25:46;11.20;;;7.70;;
3261;SDS011;1643;47.746;9.000;2022-12-11T11:28:16;12.13;;;7.40;;
3261;SDS011;1643;47.746;9.000;2022-12-11T11:30:53;14.77;;;8.70;;
3261;SDS011;1643;47.746;9.000;2022-12-11T11:33:21;10.43;;;6.80;;
3261;SDS011;1643;47.746;9.000;2022-12-11T11:35:51;12.13;;;8.13;;
3261;SDS011;1643;47.746;9.000;2022-12-11T11:38:18;12.13;;;8.33;;
3261;SDS011;1643;47.746;9.000;2022-12-11T11:40:46;11.80;;;7.90;;
3261;SDS011;1643;47.746;9.000;2022-12-11T11:46:03;14.73;;;9.60;;
3261;SDS011;1643;47.746;9.000;2022-12-11T11:48:44;11.00;;;6.90;;
3261;SDS011;1643;47.746;9.000;2022-12-11T11:51:18;10.43;;;7.50;;
3261;SDS011;1643;47.746;9.000;2022-12-11T11:53:47;8.97;;;6.47;;
3261;SDS011;1643;47.746;9.000;2022-12-11T11:56:28;13.40;;;8.60;;
3261;SDS011;1643;47.746;9.000;2022-12-11T11:58:58;12.40;;;8.10;;
3261;SDS011;1643;47.746;9.000;2022-12-11T12:01:26;13.50;;;8.40;;
3261;SDS011;1643;47.746;9.000;2022-12-11T12:03:52;11.10;;;7.67;;
3261;SDS011;1643;47.746;9.000;2022-12-11T12:11:22;9.77;;;6.93;;
3261;SDS011;1643;47.746;9.000;2022-12-11T12:14:28;12.03;;;7.33;;
3261;SDS011;1643;47.746;9.000;2022-12-11T12:21:46;11.07;;;6.87;;
3261;SDS011;1643;47.746;9.000;2022-12-11T12:24:23;8.63;;;6.17;;
3261;SDS011;1643;47.746;9.000;2022-12-11T12:26:52;6.77;;;5.80;;
3261;SDS011;1643;47.746;9.000;2022-12-11T12:31:52;10.03;;;7.03;;
3261;SDS011;1643;47.746;9.000;2022-12-11T12:44:25;8.77;;;6.43;;
3261;SDS011;1643;47.746;9.000;2022-12-11T12:49:33;13.50;;;8.00;;
3261;SDS011;1643;47.746;9.000;2022-12-11T12:52:00;12.17;;;7.60;;
3261;SDS011;1643;47.746;9.000;2022-12-11T12:54:26;11.67;;;7.50;;
3261;SDS011;1643;47.746;9.000;2022-12-11T12:56:54;9.53;;;7.00;;
3261;SDS011;1643;47.746;9.000;2022-12-11T12:59:24;11.97;;;7.73;;
3261;SDS011;1643;47.746;9.000;2022-12-11T13:01:55;9.07;;;6.67;;
3261;SDS011;1643;47.746;9.000;2022-12-11T13:04:41;8.07;;;6.10;;
3261;SDS011;1643;47.746;9.000;2022-12-11T13:07:25;8.60;;;6.63;;
3261;SDS011;1643;47.746;9.000;2022-12-11T13:09:57;9.63;;;6.67;;
3261;SDS011;1643;47.746;9.000;2022-12-11T13:12:31;9.70;;;7.10;;
3261;SDS011;1643;47.746;9.000;2022-12-11T13:14:57;13.80;;;8.00;;
3261;SDS011;1643;47.746;9.000;2022-12-11T13:17:25;10.17;;;7.23;;
3261;SDS011;1643;47.746;9.000;2022-12-11T13:20:09;12.43;;;7.30;;
3261;SDS011;1643;47.746;9.000;2022-12-11T13:22:45;8.97;;;6.70;;
3261;SDS011;1643;47.746;9.000;2022-12-11T13:25:25;11.10;;;7.60;;
3261;SDS011;1643;47.746;9.000;2022-12-11T13:28:03;8.30;;;6.80;;
3261;SDS011;1643;47.746;9.000;2022-12-11T13:30:29;10.40;;;7.50;;
3261;SDS011;1643;47.746;9.000;2022-12-11T13:33:13;11.50;;;7.77;;
3261;SDS011;1643;47.746;9.000;2022-12-11T13:35:40;11.83;;;7.57;;
3261;SDS011;1643;47.746;9.000;2022-12-11T13:38:07;9.47;;;6.43;;
3261;SDS011;1643;47.746;9.000;2022-12-11T13:40:40;12.70;;;8.40;;
3261;SDS011;1643;47.746;9.000;2022-12-11T13:43:08;11.23;;;7.73;;
3261;SDS011;1643;47.746;9.000;2022-12-11T13:50:54;10.57;;;7.67;;
3261;SDS011;1643;47.746;9.000;2022-12-11T13:53:21;12.10;;;7.83;;
3261;SDS011;1643;47.746;9.000;2022-12-11T13:58:22;11.40;;;7.80;;
3261;SDS011;1643;47.746;9.000;2022-12-11T14:01:08;10.33;;;7.47;;
3261;SDS011;1643;47.746;9.000;2022-12-11T14:03:37;14.53;;;9.57;;
3261;SDS011;1643;47.746;9.000;2022-12-11T14:06:03;10.33;;;7.47;;
3261;SDS011;1643;47.746;9.000;2022-12-11T14:08:33;13.20;;;7.47;;
3261;SDS011;1643;47.746;9.000;2022-12-11T14:11:00;12.63;;;8.23;;
3261;SDS011;1643;47.746;9.000;2022-12-11T14:13:37;11.00;;;7.93;;
3261;SDS011;1643;47.746;9.000;2022-12-11T14:16:04;11.23;;;8.43;;
3261;SDS011;1643;47.746;9.000;2022-12-11T14:18:31;11.93;;;8.80;;
3261;SDS011;1643;47.746;9.000;2022-12-11T14:20:59;8.10;;;6.33;;
3261;SDS011;1643;47.746;9.000;2022-12-11T14:23:26;9.10;;;7.30;;
3261;SDS011;1643;47.746;9.000;2022-12-11T14:25:54;10.80;;;7.13;;
3261;SDS011;1643;47.746;9.000;2022-12-11T14:28:20;9.63;;;7.20;;
3261;SDS011;1643;47.746;9.000;2022-12-11T14:30:48;12.17;;;8.47;;
3261;SDS011;1643;47.746;9.000;2022-12-11T14:33:15;11.43;;;8.10;;
3261;SDS011;1643;47.746;9.000;2022-12-11T14:35:42;9.50;;;7.57;;
3261;SDS011;1643;47.746;9.000;2022-12-11T14:38:16;9.77;;;8.27;;
3261;SDS011;1643;47.746;9.000;2022-12-11T14:40:44;12.47;;;8.37;;
3261;SDS011;1643;47.746;9.000;2022-12-11T14:43:26;11.27;;;7.90;;
3261;SDS011;1643;47.746;9.000;2022-12-11T14:45:54;20.53;;;10.60;;
3261;SDS011;1643;47.746;9.000;2022-12-11T14:48:23;13.90;;;9.77;;
3261;SDS011;1643;47.746;9.000;2022-12-11T14:50:52;15.10;;;10.10;;
3261;SDS011;1643;47.746;9.000;2022-12-11T14:53:23;16.03;;;10.83;;
3261;SDS011;1643;47.746;9.000;2022-12-11T14:55:50;17.30;;;10.00;;
3261;SDS011;1643;47.746;9.000;2022-12-11T14:58:18;15.80;;;10.07;;
3261;SDS011;1643;47.746;9.000;2022-12-11T15:01:46;13.13;;;9.43;;
3261;SDS011;1643;47.746;9.000;2022-12-11T15:03:41;11.97;;;8.70;;
3261;SDS011;1643;47.746;9.000;2022-12-11T15:06:24;13.30;;;8.87;;
3261;SDS011;1643;47.746;9.000;2022-12-11T15:08:51;11.33;;;7.93;;
3261;SDS011;1643;47.746;9.000;2022-12-11T15:11:17;10.77;;;8.47;;
3261;SDS011;1643;47.746;9.000;2022-12-11T15:16:12;16.20;;;10.00;;
3261;SDS011;1643;47.746;9.000;2022-12-11T15:18:39;12.67;;;8.93;;
3261;SDS011;1643;47.746;9.000;2022-12-11T15:21:06;11.50;;;8.43;;
3261;SDS011;1643;47.746;9.000;2022-12-11T15:23:46;14.17;;;8.70;;
3261;SDS011;1643;47.746;9.000;2022-12-11T15:26:14;14.90;;;10.87;;
3261;SDS011;1643;47.746;9.000;2022-12-11T15:28:40;17.60;;;12.77;;
3261;SDS011;1643;47.746;9.000;2022-12-11T15:31:19;16.47;;;13.00;;
3261;SDS011;1643;47.746;9.000;2022-12-11T15:33:46;23.20;;;15.67;;
3261;SDS011;1643;47.746;9.000;2022-12-11T15:36:29;65.93;;;39.30;;
3261;SDS011;1643;47.746;9.000;2022-12-11T15:38:56;84.03;;;41.70;;
3261;SDS011;1643;47.746;9.000;2022-12-11T15:41:22;46.73;;;23.57;;
3261;SDS011;1643;47.746;9.000;2022-12-11T15:43:49;28.07;;;16.17;;
3261;SDS011;1643;47.746;9.000;2022-12-11T15:46:15;23.53;;;13.20;;
3261;SDS011;1643;47.746;9.000;2022-12-11T15:48:41;36.73;;;20.30;;
3261;SDS011;1643;47.746;9.000;2022-12-11T15:51:07;50.30;;;27.57;;
3261;SDS011;1643;47.746;9.000;2022-12-11T15:53:33;65.50;;;35.63;;
3261;SDS011;1643;47.746;9.000;2022-12-11T15:55:59;75.23;;;35.43;;
3261;SDS011;1643;47.746;9.000;2022-12-11T15:58:26;40.33;;;21.70;;
3261;SDS011;1643;47.746;9.000;2022-12-11T16:00:52;28.13;;;17.30;;
3261;SDS011;1643;47.746;9.000;2022-12-11T16:03:19;28.27;;;13.17;;
3261;SDS011;1643;47.746;9.000;2022-12-11T16:05:45;14.80;;;9.80;;
3261;SDS011;1643;47.746;9.000;2022-12-11T16:08:12;11.40;;;8.40;;
3261;SDS011;1643;47.746;9.000;2022-12-11T16:10:39;13.67;;;9.03;;
3261;SDS011;1643;47.746;9.000;2022-12-11T16:13:06;13.10;;;9.40;;
3261;SDS011;1643;47.746;9.000;2022-12-11T16:15:32;14.60;;;9.20;;
3261;SDS011;1643;47.746;9.000;2022-12-11T16:18:02;13.93;;;9.63;;